MDT14 ENBR-ENZV
Flight info
| Callsign | MDT14 |
|---|---|
| Flight time | 0h 41m |
| Altitude | 17000 |
| Route | BEGOD |
| Aircraft | C750/M-SBDE3FGHRWXY/S |
Departure
| Time | 2026-04-23 18:22 |
|---|---|
| Airport | Bergen Airport, Flesland (ENBR) |
Arrival
| Time | 2026-04-23 19:04 |
|---|---|
| Airport | Stavanger Airport, Sola (ENZV) |
| Time | Latitude | Longitude | Altitude | Speed | Heading |
|---|---|---|---|---|---|
| 2026-04-23 18:01 | 60.28530 | 5.22650 | 163 ft | 0 kts | 82° |
| 2026-04-23 18:18 | 60.28530 | 5.22651 | 163 ft | 0 kts | 85° |
| 2026-04-23 18:18 | 60.28528 | 5.22655 | 163 ft | 0 kts | 118° |
| 2026-04-23 18:18 | 60.28524 | 5.22651 | 163 ft | 2 kts | 198° |
| 2026-04-23 18:18 | 60.28518 | 5.22599 | 162 ft | 5 kts | 262° |
| 2026-04-23 18:19 | 60.28501 | 5.22547 | 161 ft | 6 kts | 197° |
| 2026-04-23 18:19 | 60.28447 | 5.22557 | 159 ft | 9 kts | 172° |
| 2026-04-23 18:19 | 60.28373 | 5.22578 | 157 ft | 12 kts | 171° |
| 2026-04-23 18:19 | 60.28301 | 5.22531 | 155 ft | 12 kts | 246° |
| 2026-04-23 18:20 | 60.28281 | 5.22372 | 152 ft | 0 kts | 261° |
| 2026-04-23 18:21 | 60.28279 | 5.22279 | 151 ft | 13 kts | 272° |
| 2026-04-23 18:21 | 60.28318 | 5.22157 | 151 ft | 0 kts | 347° |
| 2026-04-23 18:22 | 60.28336 | 5.22149 | 152 ft | 14 kts | 348° |
| 2026-04-23 18:22 | 60.28819 | 5.21982 | 161 ft | 122 kts | 349° |
| 2026-04-23 18:22 | 60.29753 | 5.21680 | 608 ft | 145 kts | 348° |
| 2026-04-23 18:22 | 60.30805 | 5.21340 | 1300 ft | 159 kts | 350° |
| 2026-04-23 18:23 | 60.31545 | 5.21080 | 1806 ft | 167 kts | 351° |
| 2026-04-23 18:23 | 60.34416 | 5.20110 | 3593 ft | 200 kts | 352° |
| 2026-04-23 18:24 | 60.37450 | 5.19084 | 5307 ft | 236 kts | 349° |
| 2026-04-23 18:24 | 60.39064 | 5.18538 | 5899 ft | 245 kts | 349° |
| 2026-04-23 18:24 | 60.40720 | 5.17979 | 7272 ft | 238 kts | 349° |
| 2026-04-23 18:25 | 60.44091 | 5.16835 | 9668 ft | 252 kts | 348° |
| 2026-04-23 18:25 | 60.45812 | 5.15973 | 10584 ft | 260 kts | 335° |
| 2026-04-23 18:25 | 60.47276 | 5.13804 | 11523 ft | 263 kts | 314° |
| 2026-04-23 18:25 | 60.48257 | 5.10653 | 12478 ft | 270 kts | 294° |
| 2026-04-23 18:26 | 60.48563 | 5.06841 | 13451 ft | 280 kts | 272° |
| 2026-04-23 18:26 | 60.48068 | 5.02942 | 14385 ft | 293 kts | 249° |
| 2026-04-23 18:26 | 60.46760 | 4.99681 | 15213 ft | 309 kts | 225° |
| 2026-04-23 18:26 | 60.44735 | 4.97634 | 15400 ft | 348 kts | 199° |
| 2026-04-23 18:27 | 60.42187 | 4.97341 | 15431 ft | 384 kts | 180° |
| 2026-04-23 18:27 | 60.39501 | 4.98147 | 16060 ft | 392 kts | 172° |
| 2026-04-23 18:27 | 60.36827 | 4.99174 | 16990 ft | 391 kts | 173° |
| 2026-04-23 18:27 | 60.34090 | 4.99897 | 17423 ft | 405 kts | 177° |
| 2026-04-23 18:28 | 60.31201 | 5.00265 | 17409 ft | 429 kts | 180° |
| 2026-04-23 18:28 | 60.28148 | 5.00743 | 17408 ft | 449 kts | 176° |
| 2026-04-23 18:28 | 60.25049 | 5.01940 | 17396 ft | 456 kts | 169° |
| 2026-04-23 18:28 | 60.21940 | 5.03362 | 17400 ft | 459 kts | 170° |
| 2026-04-23 18:29 | 60.18843 | 5.04560 | 17400 ft | 460 kts | 172° |
| 2026-04-23 18:29 | 60.15689 | 5.05636 | 17394 ft | 459 kts | 173° |
| 2026-04-23 18:29 | 60.12512 | 5.06359 | 17391 ft | 460 kts | 176° |
| 2026-04-23 18:29 | 60.09335 | 5.06996 | 17390 ft | 460 kts | 177° |
| 2026-04-23 18:30 | 60.06111 | 5.07667 | 17384 ft | 459 kts | 176° |
| 2026-04-23 18:30 | 60.02973 | 5.08358 | 17382 ft | 460 kts | 176° |
| 2026-04-23 18:30 | 59.99794 | 5.09045 | 17383 ft | 460 kts | 176° |
| 2026-04-23 18:30 | 59.96607 | 5.09706 | 17385 ft | 460 kts | 176° |
| 2026-04-23 18:31 | 59.93424 | 5.10368 | 17383 ft | 460 kts | 176° |
| 2026-04-23 18:31 | 59.90238 | 5.11046 | 17391 ft | 460 kts | 176° |
| 2026-04-23 18:31 | 59.87054 | 5.11723 | 17390 ft | 460 kts | 176° |
| 2026-04-23 18:31 | 59.83872 | 5.12389 | 17392 ft | 460 kts | 176° |
| 2026-04-23 18:32 | 59.80689 | 5.13050 | 17398 ft | 460 kts | 176° |
| 2026-04-23 18:32 | 59.77501 | 5.13644 | 17398 ft | 459 kts | 178° |
| 2026-04-23 18:32 | 59.74312 | 5.14146 | 17390 ft | 460 kts | 178° |
| 2026-04-23 18:32 | 59.71169 | 5.14683 | 17390 ft | 459 kts | 178° |
| 2026-04-23 18:33 | 59.67988 | 5.15223 | 17391 ft | 459 kts | 178° |
| 2026-04-23 18:33 | 59.64764 | 5.15739 | 17384 ft | 459 kts | 178° |
| 2026-04-23 18:33 | 59.61621 | 5.16522 | 17370 ft | 461 kts | 171° |
| 2026-04-23 18:33 | 59.58482 | 5.17811 | 17392 ft | 462 kts | 171° |
| 2026-04-23 18:34 | 59.55323 | 5.19046 | 17379 ft | 462 kts | 171° |
| 2026-04-23 18:34 | 59.52164 | 5.20252 | 17376 ft | 462 kts | 171° |
| 2026-04-23 18:34 | 59.49005 | 5.21501 | 17383 ft | 462 kts | 171° |
| 2026-04-23 18:34 | 59.45856 | 5.22768 | 17374 ft | 461 kts | 171° |
| 2026-04-23 18:35 | 59.42815 | 5.23975 | 16885 ft | 430 kts | 171° |
| 2026-04-23 18:35 | 59.39984 | 5.25076 | 16334 ft | 400 kts | 171° |
| 2026-04-23 18:35 | 59.37302 | 5.26114 | 15822 ft | 387 kts | 171° |
| 2026-04-23 18:35 | 59.34657 | 5.27143 | 15314 ft | 390 kts | 171° |
| 2026-04-23 18:36 | 59.32021 | 5.28174 | 14812 ft | 390 kts | 171° |
| 2026-04-23 18:36 | 59.29363 | 5.29214 | 14301 ft | 389 kts | 171° |
| 2026-04-23 18:36 | 59.26708 | 5.30247 | 13752 ft | 387 kts | 171° |
| 2026-04-23 18:36 | 59.24065 | 5.31272 | 13241 ft | 386 kts | 171° |
| 2026-04-23 18:37 | 59.22321 | 5.31947 | 12899 ft | 385 kts | 171° |
| 2026-04-23 18:37 | 59.19701 | 5.32963 | 12401 ft | 383 kts | 171° |
| 2026-04-23 18:37 | 59.17089 | 5.33975 | 11891 ft | 382 kts | 171° |
| 2026-04-23 18:37 | 59.15378 | 5.34637 | 11559 ft | 370 kts | 171° |
| 2026-04-23 18:38 | 59.14721 | 5.34892 | 11425 ft | 364 kts | 171° |
| 2026-04-23 18:38 | 59.12220 | 5.35861 | 10944 ft | 344 kts | 171° |
| 2026-04-23 18:38 | 59.09931 | 5.36739 | 10226 ft | 337 kts | 171° |
| 2026-04-23 18:38 | 59.07663 | 5.37607 | 9661 ft | 324 kts | 171° |
| 2026-04-23 18:39 | 59.05483 | 5.38447 | 9236 ft | 314 kts | 170° |
| 2026-04-23 18:39 | 59.03376 | 5.39255 | 8828 ft | 312 kts | 170° |
| 2026-04-23 18:39 | 59.01251 | 5.40066 | 8420 ft | 311 kts | 170° |
| 2026-04-23 18:39 | 58.99130 | 5.40878 | 8007 ft | 310 kts | 170° |
| 2026-04-23 18:40 | 58.97014 | 5.41688 | 7599 ft | 309 kts | 170° |
| 2026-04-23 18:40 | 58.94911 | 5.42491 | 7192 ft | 307 kts | 169° |
| 2026-04-23 18:40 | 58.92810 | 5.43292 | 6788 ft | 306 kts | 169° |
| 2026-04-23 18:40 | 58.90727 | 5.44085 | 6361 ft | 304 kts | 169° |
| 2026-04-23 18:41 | 58.88653 | 5.44872 | 5957 ft | 303 kts | 169° |
| 2026-04-23 18:41 | 58.86589 | 5.45657 | 5557 ft | 301 kts | 169° |
| 2026-04-23 18:41 | 58.84537 | 5.46436 | 5163 ft | 300 kts | 169° |
| 2026-04-23 18:41 | 58.82493 | 5.47211 | 4757 ft | 299 kts | 169° |
| 2026-04-23 18:42 | 58.80463 | 5.47978 | 4363 ft | 296 kts | 168° |
| 2026-04-23 18:42 | 58.78449 | 5.48740 | 3979 ft | 291 kts | 168° |
| 2026-04-23 18:42 | 58.76485 | 5.49481 | 3610 ft | 286 kts | 168° |
| 2026-04-23 18:42 | 58.74542 | 5.50292 | 3211 ft | 282 kts | 163° |
| 2026-04-23 18:43 | 58.72999 | 5.52087 | 2748 ft | 249 kts | 128° |
| 2026-04-23 18:43 | 58.72189 | 5.54722 | 2763 ft | 216 kts | 102° |
| 2026-04-23 18:43 | 58.72003 | 5.57522 | 2844 ft | 208 kts | 78° |
| 2026-04-23 18:43 | 58.72357 | 5.60169 | 2966 ft | 201 kts | 61° |
| 2026-04-23 18:44 | 58.73078 | 5.62441 | 2972 ft | 196 kts | 40° |
| 2026-04-23 18:44 | 58.74188 | 5.63797 | 2994 ft | 183 kts | 18° |
| 2026-04-23 18:44 | 58.75288 | 5.64075 | 2960 ft | 145 kts | 360° |
| 2026-04-23 18:44 | 58.76323 | 5.64099 | 2670 ft | 151 kts | 0° |
| 2026-04-23 18:45 | 58.77332 | 5.64135 | 2527 ft | 151 kts | 0° |
| 2026-04-23 18:45 | 58.78308 | 5.64168 | 2713 ft | 129 kts | 0° |
| 2026-04-23 18:45 | 58.79237 | 5.64188 | 2745 ft | 139 kts | 0° |
| 2026-04-23 18:45 | 58.80193 | 5.64216 | 2092 ft | 130 kts | 0° |
| 2026-04-23 18:46 | 58.81034 | 5.64125 | 1617 ft | 114 kts | 355° |
| 2026-04-23 18:46 | 58.81824 | 5.64031 | 1134 ft | 109 kts | 355° |
| 2026-04-23 18:46 | 58.82533 | 5.63960 | 918 ft | 96 kts | 355° |
| 2026-04-23 18:46 | 58.83186 | 5.63947 | 688 ft | 96 kts | 357° |
| 2026-04-23 18:47 | 58.83856 | 5.63978 | 589 ft | 94 kts | 356° |
| 2026-04-23 18:47 | 58.84505 | 5.63969 | 538 ft | 91 kts | 353° |
| 2026-04-23 18:47 | 58.85128 | 5.63910 | 463 ft | 91 kts | 355° |
| 2026-04-23 18:47 | 58.85770 | 5.63870 | 331 ft | 93 kts | 354° |
| 2026-04-23 18:48 | 58.86448 | 5.63827 | 234 ft | 115 kts | 353° |
| 2026-04-23 18:48 | 58.87351 | 5.63838 | 459 ft | 137 kts | 359° |
| 2026-04-23 18:48 | 58.88343 | 5.63998 | 1194 ft | 149 kts | 1° |
| 2026-04-23 18:48 | 58.89462 | 5.64051 | 1847 ft | 173 kts | 0° |
| 2026-04-23 18:49 | 58.90752 | 5.64045 | 2666 ft | 194 kts | 359° |
| 2026-04-23 18:49 | 58.92089 | 5.64035 | 3862 ft | 195 kts | 359° |
| 2026-04-23 18:49 | 58.93395 | 5.63988 | 4800 ft | 189 kts | 353° |
| 2026-04-23 18:49 | 58.94592 | 5.62691 | 4938 ft | 209 kts | 315° |
| 2026-04-23 18:50 | 58.95001 | 5.60931 | 4944 ft | 221 kts | 288° |
| 2026-04-23 18:50 | 58.94370 | 5.57051 | 4958 ft | 250 kts | 235° |
| 2026-04-23 18:50 | 58.92921 | 5.55100 | 5027 ft | 259 kts | 214° |
| 2026-04-23 18:50 | 58.91308 | 5.53468 | 5026 ft | 262 kts | 212° |
| 2026-04-23 18:51 | 58.89693 | 5.51840 | 5018 ft | 262 kts | 212° |
| 2026-04-23 18:51 | 58.88080 | 5.50211 | 5009 ft | 260 kts | 212° |
| 2026-04-23 18:51 | 58.86494 | 5.48611 | 5008 ft | 259 kts | 212° |
| 2026-04-23 18:51 | 58.84895 | 5.47001 | 5003 ft | 259 kts | 212° |
| 2026-04-23 18:52 | 58.83294 | 5.45394 | 5005 ft | 259 kts | 212° |
| 2026-04-23 18:52 | 58.81693 | 5.43790 | 4999 ft | 259 kts | 212° |
| 2026-04-23 18:52 | 58.80012 | 5.42637 | 4387 ft | 265 kts | 191° |
| 2026-04-23 18:52 | 58.78168 | 5.42460 | 3947 ft | 263 kts | 182° |
| 2026-04-23 18:53 | 58.76355 | 5.42399 | 3545 ft | 259 kts | 182° |
| 2026-04-23 18:53 | 58.74526 | 5.42310 | 3062 ft | 269 kts | 182° |
| 2026-04-23 18:53 | 58.72702 | 5.42196 | 3000 ft | 255 kts | 182° |
| 2026-04-23 18:53 | 58.70934 | 5.42091 | 3010 ft | 254 kts | 182° |
| 2026-04-23 18:54 | 58.69156 | 5.41982 | 3008 ft | 257 kts | 182° |
| 2026-04-23 18:54 | 58.67387 | 5.41888 | 3007 ft | 259 kts | 182° |
| 2026-04-23 18:54 | 58.65586 | 5.41795 | 3009 ft | 260 kts | 182° |
| 2026-04-23 18:54 | 58.63774 | 5.41699 | 3009 ft | 260 kts | 182° |
| 2026-04-23 18:55 | 58.61962 | 5.41613 | 3014 ft | 260 kts | 182° |
| 2026-04-23 18:55 | 58.60205 | 5.42272 | 2890 ft | 258 kts | 149° |
| 2026-04-23 18:55 | 58.59026 | 5.44628 | 2846 ft | 239 kts | 108° |
| 2026-04-23 18:55 | 58.58753 | 5.47617 | 2926 ft | 223 kts | 83° |
| 2026-04-23 18:56 | 58.58738 | 5.49605 | 3031 ft | 228 kts | 82° |
| 2026-04-23 18:56 | 58.58973 | 5.53564 | 2942 ft | 214 kts | 55° |
| 2026-04-23 18:56 | 58.59931 | 5.55554 | 3003 ft | 200 kts | 33° |
| 2026-04-23 18:56 | 58.61033 | 5.57244 | 3014 ft | 205 kts | 32° |
| 2026-04-23 18:57 | 58.62147 | 5.58964 | 3003 ft | 204 kts | 33° |
| 2026-04-23 18:57 | 58.63242 | 5.60635 | 3002 ft | 204 kts | 33° |
| 2026-04-23 18:57 | 58.64352 | 5.62310 | 3000 ft | 202 kts | 32° |
| 2026-04-23 18:57 | 58.65514 | 5.63799 | 2927 ft | 199 kts | 18° |
| 2026-04-23 18:58 | 58.66837 | 5.64281 | 2991 ft | 193 kts | 4° |
| 2026-04-23 18:58 | 58.68185 | 5.64353 | 3001 ft | 191 kts | 359° |
| 2026-04-23 18:58 | 58.69344 | 5.64324 | 2953 ft | 142 kts | 359° |
| 2026-04-23 18:58 | 58.70278 | 5.64296 | 2970 ft | 132 kts | 358° |
| 2026-04-23 18:59 | 58.71207 | 5.64268 | 2984 ft | 135 kts | 359° |
| 2026-04-23 18:59 | 58.72145 | 5.64240 | 2993 ft | 135 kts | 359° |
| 2026-04-23 18:59 | 58.73094 | 5.64211 | 2906 ft | 138 kts | 358° |
| 2026-04-23 18:59 | 58.74048 | 5.64180 | 2717 ft | 136 kts | 359° |
| 2026-04-23 19:00 | 58.74985 | 5.64152 | 2527 ft | 133 kts | 359° |
| 2026-04-23 19:00 | 58.75871 | 5.64125 | 2372 ft | 133 kts | 359° |
| 2026-04-23 19:00 | 58.76799 | 5.64097 | 2180 ft | 133 kts | 359° |
| 2026-04-23 19:00 | 58.77720 | 5.64069 | 1987 ft | 133 kts | 359° |
| 2026-04-23 19:01 | 58.78640 | 5.64047 | 1805 ft | 133 kts | 359° |
| 2026-04-23 19:01 | 58.79572 | 5.64020 | 1602 ft | 133 kts | 358° |
| 2026-04-23 19:01 | 58.80480 | 5.63994 | 1421 ft | 128 kts | 357° |
| 2026-04-23 19:01 | 58.81388 | 5.63966 | 1256 ft | 131 kts | 358° |
| 2026-04-23 19:02 | 58.82004 | 5.63948 | 1112 ft | 131 kts | 357° |
| 2026-04-23 19:02 | 58.83217 | 5.63912 | 846 ft | 130 kts | 356° |
| 2026-04-23 19:02 | 58.84128 | 5.63886 | 681 ft | 131 kts | 357° |
| 2026-04-23 19:02 | 58.85024 | 5.63876 | 451 ft | 125 kts | 357° |
| 2026-04-23 19:03 | 58.85875 | 5.63871 | 299 ft | 118 kts | 356° |
| 2026-04-23 19:03 | 58.86680 | 5.63830 | 134 ft | 115 kts | 354° |
| 2026-04-23 19:03 | 58.87444 | 5.63776 | 32 ft | 98 kts | 356° |
| 2026-04-23 19:03 | 58.87926 | 5.63763 | 29 ft | 53 kts | 359° |
| 2026-04-23 19:04 | 58.88274 | 5.63757 | 28 ft | 47 kts | 360° |
| 2026-04-23 19:04 | 58.88580 | 5.63753 | 26 ft | 36 kts | 359° |
| 2026-04-23 19:04 | 58.88698 | 5.63712 | 25 ft | 10 kts | 314° |
| 2026-04-23 19:04 | 58.88708 | 5.63553 | 27 ft | 11 kts | 269° |
| 2026-04-23 19:05 | 58.88707 | 5.63487 | 28 ft | 0 kts | 268° |
| 2026-04-23 19:05 | 58.88707 | 5.63486 | 28 ft | 0 kts | 268° |
| 2026-04-23 19:05 | 58.88708 | 5.63384 | 27 ft | 12 kts | 271° |
| 2026-04-23 19:05 | 58.88653 | 5.63317 | 28 ft | 10 kts | 186° |
| 2026-04-23 19:06 | 58.88582 | 5.63312 | 26 ft | 5 kts | 193° |
| 2026-04-23 19:06 | 58.88572 | 5.63312 | 29 ft | 0 kts | 168° |